createdAt,value
2023-02-22T00:00:35.747Z,1020.21
2023-02-22T00:01:36.138Z,1020.17
2023-02-22T00:02:35.743Z,1020.14
2023-02-22T00:03:35.775Z,1020.13
2023-02-22T00:04:35.744Z,1020.16
2023-02-22T00:05:35.744Z,1020.13
2023-02-22T00:06:35.748Z,1020.13
2023-02-22T00:07:35.747Z,1020.12
2023-02-22T00:08:35.770Z,1020.12
2023-02-22T00:09:35.748Z,1020.1
2023-02-22T00:10:35.756Z,1020.14
2023-02-22T00:11:35.739Z,1020.12
2023-02-22T00:12:35.748Z,1020.15
2023-02-22T00:13:35.757Z,1020.14
2023-02-22T00:14:35.746Z,1020.1
2023-02-22T00:15:35.761Z,1020.11
2023-02-22T00:16:35.785Z,1020.1
2023-02-22T00:17:35.768Z,1020.1
2023-02-22T00:18:35.798Z,1020.12
2023-02-22T00:19:35.746Z,1020.12
2023-02-22T00:20:35.743Z,1020.1
2023-02-22T00:21:35.760Z,1020.06
2023-02-22T00:22:35.746Z,1020.09
2023-02-22T00:23:35.766Z,1020.04
2023-02-22T00:24:35.754Z,1020.03
2023-02-22T00:25:35.750Z,1020.04
2023-02-22T00:26:35.738Z,1020.05
2023-02-22T00:27:35.749Z,1020.02
2023-02-22T00:28:35.752Z,1020.01
2023-02-22T00:29:35.743Z,1020.02
2023-02-22T00:30:35.761Z,1020.02
2023-02-22T00:31:35.797Z,1020.02
2023-02-22T00:32:35.807Z,1020.04
2023-02-22T00:33:35.750Z,1020.04
2023-02-22T00:34:35.740Z,1020.04
2023-02-22T00:35:35.735Z,1020.05
2023-02-22T00:36:35.755Z,1020.05
2023-02-22T00:37:35.748Z,1020.04
2023-02-22T00:38:35.758Z,1020.01
2023-02-22T00:39:35.738Z,1020.06
2023-02-22T00:40:35.762Z,1020.04
2023-02-22T00:41:35.811Z,1020.04
2023-02-22T00:42:35.737Z,1020.08
2023-02-22T00:43:35.760Z,1020.04
2023-02-22T00:44:35.740Z,1020.05
2023-02-22T00:45:35.813Z,1020.08
2023-02-22T00:46:35.748Z,1020.05
2023-02-22T00:47:35.747Z,1020.08
2023-02-22T00:48:35.760Z,1020.08
2023-02-22T00:49:35.743Z,1020.03
2023-02-22T00:50:35.749Z,1020.04
2023-02-22T00:51:35.742Z,1020.08
2023-02-22T00:52:35.767Z,1020.05
2023-02-22T00:53:35.748Z,1020.06
2023-02-22T00:54:35.742Z,1020.09
2023-02-22T00:55:35.755Z,1020.06
2023-02-22T00:56:35.744Z,1020.02
2023-02-22T00:57:35.749Z,1020.02
2023-02-22T00:58:35.762Z,1020.03
2023-02-22T00:59:35.745Z,1020.03
2023-02-22T01:00:35.740Z,1020.01
2023-02-22T01:01:35.808Z,1020.05
2023-02-22T01:02:35.792Z,1020.08
2023-02-22T01:03:35.760Z,1020.09
2023-02-22T01:04:35.741Z,1020.1
2023-02-22T01:05:35.761Z,1020.05
2023-02-22T01:06:35.754Z,1020.04
2023-02-22T01:07:35.735Z,1020.06
2023-02-22T01:08:35.760Z,1020.06
2023-02-22T01:09:35.761Z,1020.12
2023-02-22T01:10:35.744Z,1020.14
2023-02-22T01:11:35.744Z,1020.09
2023-02-22T01:12:35.741Z,1020.14
2023-02-22T01:13:35.778Z,1020.09
2023-02-22T01:14:35.745Z,1020.08
2023-02-22T01:15:35.746Z,1020.09
2023-02-22T01:16:35.765Z,1020.13
2023-02-22T01:17:35.751Z,1020.11
2023-02-22T01:18:35.753Z,1020.13
2023-02-22T01:19:35.732Z,1020.11
2023-02-22T01:20:35.748Z,1020.09
2023-02-22T01:21:35.737Z,1020.06
2023-02-22T01:22:35.741Z,1020.13
2023-02-22T01:23:35.751Z,1020.08
2023-02-22T01:24:35.743Z,1020.09
2023-02-22T01:25:35.769Z,1020.09
2023-02-22T01:26:35.746Z,1020.08
2023-02-22T01:27:35.731Z,1020.09
2023-02-22T01:28:35.748Z,1020.09
2023-02-22T01:29:35.743Z,1020.14
2023-02-22T01:30:35.908Z,1020.1
2023-02-22T01:31:35.841Z,1020.05
2023-02-22T01:32:35.745Z,1020.05
2023-02-22T01:33:35.762Z,1020.09
2023-02-22T01:34:35.741Z,1020.1
2023-02-22T01:35:35.745Z,1020.09
2023-02-22T01:36:35.750Z,1020.08
2023-02-22T01:37:35.741Z,1020.11
2023-02-22T01:38:35.747Z,1020.09
2023-02-22T01:39:35.739Z,1020.1
2023-02-22T01:40:35.748Z,1020.09
2023-02-22T01:41:35.742Z,1020.09
2023-02-22T01:42:35.757Z,1020.13
2023-02-22T01:43:35.749Z,1020.11
2023-02-22T01:44:35.755Z,1020.13
2023-02-22T01:45:35.757Z,1020.11
2023-02-22T01:46:35.750Z,1020.09
2023-02-22T01:47:35.730Z,1020.14
2023-02-22T01:48:35.760Z,1020.13
2023-02-22T01:49:35.734Z,1020.12
2023-02-22T01:50:35.748Z,1020.11
2023-02-22T01:51:35.752Z,1020.13
2023-02-22T01:52:35.735Z,1020.12
2023-02-22T01:53:35.768Z,1020.13
2023-02-22T01:54:35.737Z,1020.05
2023-02-22T01:55:35.742Z,1020.09
2023-02-22T01:56:35.783Z,1020.12
2023-02-22T01:57:35.758Z,1020.1
2023-02-22T01:58:35.751Z,1020.1
2023-02-22T01:59:35.741Z,1020.17
2023-02-22T02:00:35.745Z,1020.16
2023-02-22T02:01:35.738Z,1020.14
2023-02-22T02:02:35.732Z,1020.11
2023-02-22T02:03:35.804Z,1020.1
2023-02-22T02:04:35.721Z,1020.17
2023-02-22T02:05:35.748Z,1020.11
2023-02-22T02:06:35.757Z,1020.14
2023-02-22T02:07:35.737Z,1020.1
2023-02-22T02:08:35.742Z,1020.1
2023-02-22T02:09:35.735Z,1020.08
2023-02-22T02:10:35.747Z,1020.09
2023-02-22T02:11:35.732Z,1020.04
2023-02-22T02:12:35.754Z,1020.02
2023-02-22T02:13:35.754Z,1020.01
2023-02-22T02:14:35.736Z,1020.02
2023-02-22T02:15:35.757Z,1019.98
2023-02-22T02:16:35.792Z,1019.97
2023-02-22T02:17:35.740Z,1020
2023-02-22T02:18:35.759Z,1019.98
2023-02-22T02:19:35.740Z,1020
2023-02-22T02:20:35.735Z,1019.99
2023-02-22T02:21:35.747Z,1019.97
2023-02-22T02:22:35.749Z,1019.99
2023-02-22T02:23:35.753Z,1020.03
2023-02-22T02:24:35.746Z,1019.97
2023-02-22T02:25:35.761Z,1019.99
2023-02-22T02:26:35.746Z,1019.98
2023-02-22T02:27:35.751Z,1019.95
2023-02-22T02:28:35.750Z,1019.96
2023-02-22T02:29:35.743Z,1019.94
2023-02-22T02:30:35.811Z,1019.91
2023-02-22T02:31:35.881Z,1019.88
2023-02-22T02:32:35.752Z,1019.89
2023-02-22T02:33:35.756Z,1019.87
2023-02-22T02:34:35.750Z,1019.89
2023-02-22T02:35:35.745Z,1019.88
2023-02-22T02:36:35.752Z,1019.9
2023-02-22T02:37:35.748Z,1019.89
2023-02-22T02:38:35.792Z,1019.82
2023-02-22T02:39:35.746Z,1019.82
2023-02-22T02:40:35.749Z,1019.86
2023-02-22T02:41:35.750Z,1019.81
2023-02-22T02:42:35.742Z,1019.84
2023-02-22T02:43:35.755Z,1019.8
2023-02-22T02:44:35.749Z,1019.82
2023-02-22T02:45:35.751Z,1019.81
2023-02-22T02:46:35.745Z,1019.8
2023-02-22T02:47:35.748Z,1019.8
2023-02-22T02:48:35.761Z,1019.76
2023-02-22T02:49:35.744Z,1019.77
2023-02-22T02:50:35.761Z,1019.81
2023-02-22T02:51:35.740Z,1019.78
2023-02-22T02:52:35.760Z,1019.8
2023-02-22T02:53:35.762Z,1019.8
2023-02-22T02:54:35.735Z,1019.76
2023-02-22T02:55:35.746Z,1019.8
2023-02-22T02:56:35.749Z,1019.79
2023-02-22T02:57:35.741Z,1019.78
2023-02-22T02:58:35.759Z,1019.77
2023-02-22T02:59:35.733Z,1019.76
2023-02-22T03:00:35.759Z,1019.78
2023-02-22T03:01:35.750Z,1019.8
2023-02-22T03:02:35.751Z,1019.75
2023-02-22T03:03:35.752Z,1019.75
2023-02-22T03:04:35.736Z,1019.74
2023-02-22T03:05:35.744Z,1019.76
2023-02-22T03:06:35.764Z,1019.78
2023-02-22T03:07:35.781Z,1019.75
2023-02-22T03:08:35.762Z,1019.75
2023-02-22T03:09:35.747Z,1019.75
2023-02-22T03:10:35.738Z,1019.8
2023-02-22T03:11:35.744Z,1019.77
2023-02-22T03:12:35.736Z,1019.77
2023-02-22T03:13:35.760Z,1019.74
2023-02-22T03:14:35.743Z,1019.76
2023-02-22T03:15:35.747Z,1019.75
2023-02-22T03:16:35.816Z,1019.73
2023-02-22T03:17:35.761Z,1019.8
2023-02-22T03:18:35.758Z,1019.82
2023-02-22T03:19:35.739Z,1019.74
2023-02-22T03:20:35.741Z,1019.79
2023-02-22T03:21:35.738Z,1019.81
2023-02-22T03:22:35.743Z,1019.76
2023-02-22T03:23:35.752Z,1019.74
2023-02-22T03:24:35.746Z,1019.75
2023-02-22T03:25:35.753Z,1019.74
2023-02-22T03:26:35.745Z,1019.74
2023-02-22T03:27:35.750Z,1019.76
2023-02-22T03:28:35.762Z,1019.76
2023-02-22T03:29:35.757Z,1019.72
2023-02-22T03:30:35.781Z,1019.77
2023-02-22T03:31:35.781Z,1019.75
2023-02-22T03:32:35.742Z,1019.74
2023-02-22T03:33:35.756Z,1019.75
2023-02-22T03:34:35.733Z,1019.73
2023-02-22T03:35:35.764Z,1019.73
2023-02-22T03:36:35.751Z,1019.73
2023-02-22T03:37:35.743Z,1019.7
2023-02-22T03:38:35.752Z,1019.72
2023-02-22T03:39:35.752Z,1019.73
2023-02-22T03:40:35.744Z,1019.73
2023-02-22T03:41:35.750Z,1019.72
2023-02-22T03:42:35.751Z,1019.74
2023-02-22T03:43:35.852Z,1019.73
2023-02-22T03:44:35.745Z,1019.73
2023-02-22T03:45:35.766Z,1019.68
2023-02-22T03:46:35.829Z,1019.7
2023-02-22T03:47:35.756Z,1019.74
2023-02-22T03:48:35.772Z,1019.73
2023-02-22T03:49:35.753Z,1019.72
2023-02-22T03:50:35.745Z,1019.72
2023-02-22T03:51:35.752Z,1019.7
2023-02-22T03:52:35.758Z,1019.73
2023-02-22T03:53:35.756Z,1019.7
2023-02-22T03:54:35.749Z,1019.71
2023-02-22T03:55:35.743Z,1019.74
2023-02-22T03:56:35.943Z,1019.69
2023-02-22T03:57:35.762Z,1019.71
2023-02-22T03:58:35.759Z,1019.74
2023-02-22T03:59:35.745Z,1019.74
2023-02-22T04:00:35.759Z,-192.1
2023-02-22T04:01:35.756Z,-192.1
2023-02-22T04:02:35.752Z,-192.1
2023-02-22T04:03:35.755Z,-192.1
2023-02-22T04:04:35.853Z,-192.1
2023-02-22T04:05:35.763Z,-192.1
2023-02-22T04:06:35.755Z,-192.1
2023-02-22T04:07:35.752Z,-192.1
2023-02-22T04:08:35.759Z,-192.1
2023-02-22T04:09:35.753Z,-192.1
2023-02-22T04:10:35.745Z,-192.1
2023-02-22T04:11:35.752Z,-192.1
2023-02-22T04:12:35.749Z,-192.1
2023-02-22T04:13:35.756Z,-192.1
2023-02-22T04:14:35.755Z,-192.1
2023-02-22T04:15:35.761Z,-192.1
2023-02-22T04:16:35.743Z,-192.1
2023-02-22T04:17:35.748Z,-192.1
2023-02-22T04:18:35.778Z,-192.1
2023-02-22T04:19:35.742Z,-192.1
2023-02-22T04:20:35.754Z,-192.1
2023-02-22T04:21:35.747Z,-192.1
2023-02-22T04:22:35.747Z,-192.1
2023-02-22T04:23:35.754Z,-192.1
2023-02-22T04:24:35.747Z,-192.1
2023-02-22T04:25:35.747Z,-192.1
2023-02-22T04:26:35.748Z,-192.1
2023-02-22T04:27:35.751Z,-192.1
2023-02-22T04:28:35.758Z,-192.1
2023-02-22T04:29:35.752Z,-192.1
2023-02-22T04:30:35.839Z,-192.1
2023-02-22T04:31:35.784Z,-192.1
2023-02-22T04:32:35.750Z,-192.1
2023-02-22T04:33:35.773Z,-192.1
2023-02-22T04:34:35.754Z,-192.1
2023-02-22T04:35:35.780Z,1019.64
2023-02-22T04:36:35.742Z,1019.62
2023-02-22T04:37:35.757Z,1019.63
2023-02-22T04:38:35.766Z,1019.61
2023-02-22T04:39:35.793Z,1019.57
2023-02-22T04:40:35.750Z,1019.56
2023-02-22T04:41:35.751Z,1019.56
2023-02-22T04:42:35.743Z,1019.55
2023-02-22T04:43:35.767Z,1019.52
2023-02-22T04:44:35.746Z,1019.54
2023-02-22T04:45:35.759Z,1019.52
2023-02-22T04:46:35.760Z,1019.49
2023-02-22T04:47:35.758Z,1019.49
2023-02-22T04:48:35.778Z,1019.47
2023-02-22T04:49:38.679Z,0
2023-02-22T04:50:35.749Z,0
2023-02-22T04:51:35.741Z,0
2023-02-22T04:52:35.744Z,0
2023-02-22T04:53:35.762Z,0
2023-02-22T04:54:35.744Z,0
2023-02-22T04:55:35.747Z,0
2023-02-22T04:56:35.767Z,0
2023-02-22T04:57:35.737Z,0
2023-02-22T04:58:35.757Z,0
2023-02-22T04:59:35.743Z,0
2023-02-22T05:00:35.758Z,0
2023-02-22T05:01:35.740Z,0
2023-02-22T05:02:35.773Z,0
2023-02-22T05:03:35.755Z,0
2023-02-22T05:04:35.797Z,0
2023-02-22T05:05:35.750Z,0
2023-02-22T05:06:35.751Z,0
2023-02-22T05:07:35.839Z,0
2023-02-22T05:08:35.764Z,0
2023-02-22T05:09:35.749Z,0
2023-02-22T05:10:35.746Z,0
2023-02-22T05:11:35.738Z,0
2023-02-22T05:12:35.743Z,0
2023-02-22T05:13:35.754Z,0
2023-02-22T05:14:35.744Z,0
2023-02-22T05:15:35.776Z,0
2023-02-22T05:16:35.753Z,0
2023-02-22T05:17:35.740Z,0
2023-02-22T05:18:35.760Z,0
2023-02-22T05:19:35.747Z,0
2023-02-22T05:20:35.749Z,0
2023-02-22T05:21:35.750Z,0
2023-02-22T05:22:35.757Z,0
2023-02-22T05:23:35.753Z,0
2023-02-22T05:24:35.746Z,0
2023-02-22T05:25:35.764Z,0
2023-02-22T05:26:35.754Z,0
2023-02-22T05:27:35.741Z,0
2023-02-22T05:28:35.756Z,0
2023-02-22T05:29:35.747Z,0
2023-02-22T05:30:35.819Z,0
2023-02-22T05:31:35.848Z,0
2023-02-22T05:32:35.754Z,0
2023-02-22T05:33:35.763Z,0
2023-02-22T05:34:35.739Z,0
2023-02-22T05:35:35.748Z,1019.51
2023-02-22T05:36:35.733Z,1019.52
2023-02-22T05:37:35.746Z,1019.5
2023-02-22T05:38:35.755Z,1019.52
2023-02-22T05:39:35.762Z,1019.51
2023-02-22T05:40:35.731Z,1019.51
2023-02-22T05:41:35.751Z,1019.52
2023-02-22T05:42:35.754Z,1019.52
2023-02-22T05:43:35.763Z,1019.53
2023-02-22T05:44:35.751Z,1019.53
2023-02-22T05:45:35.760Z,1019.53
2023-02-22T05:46:35.788Z,1019.56
2023-02-22T05:47:35.752Z,1019.58
2023-02-22T05:48:35.935Z,1019.57
2023-02-22T05:49:35.752Z,1019.57
2023-02-22T05:50:35.736Z,1019.53
2023-02-22T05:51:35.744Z,1019.57
2023-02-22T05:52:35.751Z,1019.59
2023-02-22T05:53:35.757Z,1019.56
2023-02-22T05:54:35.748Z,1019.53
2023-02-22T05:55:35.753Z,1019.55
2023-02-22T05:56:35.744Z,1019.53
2023-02-22T05:57:35.747Z,1019.57
2023-02-22T05:58:35.770Z,1019.59
2023-02-22T05:59:35.752Z,1019.57
2023-02-22T06:00:35.753Z,1019.58
2023-02-22T06:01:35.776Z,1019.59
2023-02-22T06:02:35.750Z,1019.59
2023-02-22T06:03:35.756Z,1019.61
2023-02-22T06:04:35.746Z,1019.64
2023-02-22T06:05:35.767Z,1019.63
2023-02-22T06:06:35.746Z,1019.62
2023-02-22T06:07:35.738Z,1019.64
2023-02-22T06:08:35.755Z,1019.67
2023-02-22T06:09:35.748Z,1019.69
2023-02-22T06:10:35.729Z,1019.72
2023-02-22T06:11:35.748Z,1019.73
2023-02-22T06:12:35.745Z,1019.74
2023-02-22T06:13:35.755Z,1019.75
2023-02-22T06:14:35.742Z,1019.8
2023-02-22T06:15:35.998Z,1019.79
2023-02-22T06:16:35.784Z,1019.79
2023-02-22T06:17:35.760Z,1019.75
2023-02-22T06:18:35.759Z,1019.75
2023-02-22T06:19:35.744Z,1019.76
2023-02-22T06:20:35.745Z,1019.77
2023-02-22T06:21:35.743Z,1019.74
2023-02-22T06:22:35.744Z,1019.77
2023-02-22T06:23:35.754Z,1019.74
2023-02-22T06:24:35.748Z,1019.74
2023-02-22T06:25:35.747Z,1019.76
2023-02-22T06:26:35.773Z,1019.76
2023-02-22T06:27:36.409Z,1019.76
2023-02-22T06:28:35.760Z,1019.74
2023-02-22T06:29:35.746Z,1019.77
2023-02-22T06:30:35.809Z,1019.75
2023-02-22T06:31:35.777Z,1019.73
2023-02-22T06:32:35.751Z,1019.74
2023-02-22T06:33:35.749Z,1019.74
2023-02-22T06:34:35.736Z,1019.74
2023-02-22T06:35:35.747Z,1019.8
2023-02-22T06:36:35.746Z,1019.77
2023-02-22T06:37:35.730Z,1019.78
2023-02-22T06:38:35.766Z,1019.78
2023-02-22T06:39:35.746Z,1019.8
2023-02-22T06:40:35.730Z,1019.78
2023-02-22T06:41:35.736Z,1019.75
2023-02-22T06:42:35.745Z,1019.79
2023-02-22T06:43:35.754Z,1019.79
2023-02-22T06:44:35.741Z,1019.82
2023-02-22T06:45:35.773Z,1019.8
2023-02-22T06:46:35.738Z,1019.84
2023-02-22T06:47:35.747Z,1019.84
2023-02-22T06:48:35.911Z,1019.85
2023-02-22T06:49:35.734Z,1019.85
2023-02-22T06:50:36.119Z,1019.87
2023-02-22T06:51:35.735Z,1019.82
2023-02-22T06:52:35.743Z,1019.86
2023-02-22T06:53:35.744Z,1019.88
2023-02-22T06:54:35.743Z,1019.88
2023-02-22T06:55:35.747Z,1019.91
2023-02-22T06:56:35.749Z,1019.91
2023-02-22T06:57:35.746Z,1019.94
2023-02-22T06:58:35.759Z,1019.91
2023-02-22T06:59:35.732Z,1019.9
2023-02-22T07:00:35.805Z,1019.92
2023-02-22T07:01:35.754Z,1019.92
2023-02-22T07:02:35.749Z,1019.95
2023-02-22T07:03:35.892Z,1019.87
2023-02-22T07:04:37.183Z,1019.93
2023-02-22T07:05:35.752Z,1019.94
2023-02-22T07:06:35.739Z,1019.93
2023-02-22T07:07:35.746Z,1019.95
2023-02-22T07:08:35.753Z,1019.9
2023-02-22T07:09:35.743Z,1019.92
2023-02-22T07:10:35.729Z,1019.98
2023-02-22T07:11:35.742Z,1019.92
2023-02-22T07:12:35.754Z,1020
2023-02-22T07:13:35.750Z,1019.95
2023-02-22T07:14:35.746Z,1019.99
2023-02-22T07:15:35.773Z,1019.97
2023-02-22T07:16:35.784Z,1019.97
2023-02-22T07:17:35.744Z,1019.96
2023-02-22T07:18:35.758Z,1019.96
2023-02-22T07:19:35.746Z,1019.95
2023-02-22T07:20:35.730Z,1019.97
2023-02-22T07:21:35.740Z,1019.94
2023-02-22T07:22:35.746Z,1019.95
2023-02-22T07:23:35.758Z,1019.95
2023-02-22T07:24:35.739Z,1019.97
2023-02-22T07:25:35.761Z,1019.98
2023-02-22T07:26:35.750Z,1020.01
2023-02-22T07:27:35.741Z,1019.98
2023-02-22T07:28:35.765Z,1020.05
2023-02-22T07:29:35.751Z,1020.06
2023-02-22T07:30:35.763Z,1020.05
2023-02-22T07:31:35.758Z,1020.09
2023-02-22T07:32:35.832Z,1020.11
2023-02-22T07:33:35.782Z,1020.09
2023-02-22T07:34:35.741Z,1020.09
2023-02-22T07:35:35.752Z,1020.18
2023-02-22T07:36:35.752Z,1020.16
2023-02-22T07:37:35.756Z,1020.17
2023-02-22T07:38:35.764Z,1020.16
2023-02-22T07:39:35.752Z,1020.19
2023-02-22T07:40:35.750Z,1020.14
2023-02-22T07:41:35.753Z,1020.11
2023-02-22T07:42:35.753Z,1020.18
2023-02-22T07:43:35.779Z,1020.14
2023-02-22T07:44:35.739Z,1020.17
2023-02-22T07:45:35.878Z,1020.19
2023-02-22T07:46:35.757Z,1020.12
2023-02-22T07:47:35.754Z,1020.17
2023-02-22T07:48:35.777Z,1020.15
2023-02-22T07:49:35.747Z,1020.11
2023-02-22T07:50:35.729Z,1020.17
2023-02-22T07:51:35.765Z,1020.17
2023-02-22T07:52:35.746Z,1020.1
2023-02-22T07:53:35.757Z,1020.17
2023-02-22T07:54:35.748Z,1020.14
2023-02-22T07:55:35.749Z,1020.13
2023-02-22T07:56:35.749Z,1020.15
2023-02-22T07:57:35.747Z,1020.15
2023-02-22T07:58:35.761Z,1020.16
2023-02-22T07:59:35.755Z,1020.13
2023-02-22T08:00:35.756Z,1020.16
2023-02-22T08:01:37.459Z,1020.14
2023-02-22T08:02:35.768Z,1020.15
2023-02-22T08:03:35.786Z,1020.18
2023-02-22T08:04:35.750Z,1020.16
2023-02-22T08:05:35.758Z,1020.16
2023-02-22T08:06:35.750Z,1020.13
2023-02-22T08:07:35.749Z,1020.15
2023-02-22T08:08:35.763Z,1020.15
2023-02-22T08:09:35.745Z,1020.17
2023-02-22T08:10:35.744Z,1020.16
2023-02-22T08:11:35.743Z,1020.15
2023-02-22T08:12:35.748Z,1020.14
2023-02-22T08:13:35.758Z,1020.16
2023-02-22T08:14:35.749Z,1020.15
2023-02-22T08:15:35.764Z,1020.16
2023-02-22T08:16:35.780Z,1020.14
2023-02-22T08:17:35.747Z,1020.17
2023-02-22T08:18:35.759Z,1020.17
2023-02-22T08:19:35.740Z,1020.15
2023-02-22T08:20:35.745Z,1020.11
2023-02-22T08:21:35.752Z,1020.12
2023-02-22T08:22:35.747Z,1020.13
2023-02-22T08:23:35.760Z,1020.09
2023-02-22T08:24:35.753Z,1020.1
2023-02-22T08:25:35.782Z,1020.11
2023-02-22T08:26:35.753Z,1020.13
2023-02-22T08:27:35.748Z,1020.09
2023-02-22T08:28:35.764Z,1020.12
2023-02-22T08:29:35.742Z,1020.17
2023-02-22T08:30:36.682Z,1020.11
2023-02-22T08:31:35.779Z,1020.13
2023-02-22T08:32:35.808Z,1020.16
2023-02-22T08:33:35.764Z,1020.16
2023-02-22T08:34:35.752Z,1020.16
2023-02-22T08:35:35.758Z,1020.16
2023-02-22T08:36:35.751Z,1020.17
2023-02-22T08:37:35.749Z,1020.15
2023-02-22T08:38:35.761Z,1020.16
2023-02-22T08:39:35.763Z,1020.19
2023-02-22T08:40:35.742Z,1020.15
2023-02-22T08:41:35.744Z,1020.15
2023-02-22T08:42:35.756Z,1020.13
2023-02-22T08:43:35.769Z,1020.16
2023-02-22T08:44:35.751Z,1020.16
2023-02-22T08:45:35.808Z,1020.16
2023-02-22T08:46:35.743Z,1020.11
2023-02-22T08:47:35.745Z,1020.14
2023-02-22T08:48:35.773Z,1020.13
2023-02-22T08:49:35.743Z,1020.06
2023-02-22T08:50:35.744Z,1020.1
2023-02-22T08:51:35.741Z,1020.05
2023-02-22T08:52:35.758Z,1020.03
2023-02-22T08:53:35.750Z,1020.04
2023-02-22T08:54:35.747Z,1020.03
2023-02-22T08:55:35.737Z,1020.05
2023-02-22T08:56:35.751Z,1020.02
2023-02-22T08:57:35.757Z,1020.06
2023-02-22T08:58:35.755Z,1020.04
2023-02-22T08:59:35.741Z,1020.04
2023-02-22T09:00:35.751Z,1020.04
2023-02-22T09:01:36.223Z,1020.05
2023-02-22T09:02:35.746Z,1020.08
2023-02-22T09:03:35.867Z,1020.05
2023-02-22T09:04:35.742Z,1020.1
2023-02-22T09:05:35.751Z,1020.09
2023-02-22T09:06:35.764Z,1020.11
2023-02-22T09:07:35.738Z,1020.09
2023-02-22T09:08:35.755Z,1020.1
2023-02-22T09:09:35.742Z,1020.1
2023-02-22T09:10:35.753Z,1020.11
2023-02-22T09:11:35.743Z,1020.12
2023-02-22T09:12:35.729Z,1020.12
2023-02-22T09:13:35.754Z,1020.16
2023-02-22T09:14:35.735Z,1020.15
2023-02-22T09:15:35.801Z,1020.14
2023-02-22T09:16:35.796Z,1020.13
2023-02-22T09:17:35.745Z,1020.17
2023-02-22T09:18:43.705Z,1020.1
2023-02-22T09:19:35.743Z,1020.14
2023-02-22T09:20:35.822Z,1020.14
2023-02-22T09:21:35.749Z,1020.15
2023-02-22T09:22:35.742Z,1020.13
2023-02-22T09:23:35.756Z,1020.16
2023-02-22T09:24:35.752Z,1020.1
2023-02-22T09:25:35.790Z,1020.16
2023-02-22T09:26:35.742Z,1020.15
2023-02-22T09:27:35.743Z,1020.17
2023-02-22T09:28:35.750Z,1020.15
2023-02-22T09:29:35.769Z,1020.15
2023-02-22T09:30:35.790Z,1020.11
2023-02-22T09:31:35.860Z,1020.13
2023-02-22T09:32:35.913Z,1020.12
2023-02-22T09:33:35.768Z,1020.08
2023-02-22T09:34:35.744Z,1020.08
2023-02-22T09:35:35.738Z,1020.03
2023-02-22T09:36:35.763Z,1020.1
2023-02-22T09:37:35.740Z,1020.04
2023-02-22T09:38:35.747Z,1020.05
2023-02-22T09:39:35.803Z,1020.03
2023-02-22T09:40:35.728Z,1020.02
2023-02-22T09:41:36.354Z,1020.01
2023-02-22T09:42:35.740Z,1020
2023-02-22T09:43:35.837Z,1019.99
2023-02-22T09:44:35.734Z,1020
2023-02-22T09:45:35.824Z,1019.97
2023-02-22T09:46:35.738Z,1019.97
2023-02-22T09:47:35.791Z,1020.01
2023-02-22T09:48:35.766Z,1019.97
2023-02-22T09:49:35.742Z,1019.93
2023-02-22T09:50:35.790Z,1019.93
2023-02-22T09:51:35.846Z,1019.9
2023-02-22T09:52:35.743Z,1019.9
2023-02-22T09:53:35.763Z,1019.89
2023-02-22T09:54:35.741Z,1019.9
2023-02-22T09:55:35.746Z,1019.89
2023-02-22T09:56:35.777Z,1019.9
2023-02-22T09:57:35.754Z,1019.88
2023-02-22T09:58:35.759Z,1019.9
2023-02-22T09:59:35.738Z,1019.9
2023-02-22T10:00:35.739Z,1019.87
2023-02-22T10:01:35.759Z,1019.85
2023-02-22T10:02:35.770Z,1019.89
2023-02-22T10:03:35.786Z,1019.82
2023-02-22T10:04:35.740Z,1019.8
2023-02-22T10:05:35.781Z,1019.82
2023-02-22T10:06:35.742Z,1019.84
2023-02-22T10:07:35.749Z,1019.88
2023-02-22T10:08:35.762Z,1019.82
2023-02-22T10:09:35.741Z,1019.82
2023-02-22T10:10:35.748Z,1019.82
2023-02-22T10:11:35.739Z,1019.85
2023-02-22T10:12:35.753Z,1019.8
2023-02-22T10:13:35.747Z,1019.78
2023-02-22T10:14:35.741Z,1019.76
2023-02-22T10:15:35.774Z,1019.76
2023-02-22T10:16:35.777Z,1019.76
2023-02-22T10:17:35.763Z,1019.74
2023-02-22T10:18:35.752Z,1019.75
2023-02-22T10:19:35.741Z,1019.75
2023-02-22T10:20:35.725Z,1019.74
2023-02-22T10:21:35.743Z,1019.72
2023-02-22T10:22:35.751Z,1019.72
2023-02-22T10:23:35.754Z,1019.68
2023-02-22T10:24:35.734Z,1019.69
2023-02-22T10:25:35.746Z,1019.67
2023-02-22T10:26:35.735Z,1019.69
2023-02-22T10:27:35.748Z,1019.67
2023-02-22T10:28:35.760Z,1019.69
2023-02-22T10:29:35.738Z,1019.69
2023-02-22T10:30:35.817Z,1019.63
2023-02-22T10:31:35.792Z,1019.64
2023-02-22T10:32:35.800Z,1019.63
2023-02-22T10:33:35.754Z,1019.56
2023-02-22T10:34:35.744Z,1019.56
2023-02-22T10:35:35.751Z,1019.54
2023-02-22T10:36:35.747Z,1019.56
2023-02-22T10:37:35.835Z,1019.58
2023-02-22T10:38:35.767Z,1019.57
2023-02-22T10:39:35.820Z,1019.55
2023-02-22T10:40:35.744Z,1019.53
2023-02-22T10:41:35.751Z,1019.52
2023-02-22T10:42:35.755Z,1019.49
2023-02-22T10:43:35.764Z,1019.52
2023-02-22T10:44:35.746Z,1019.49
2023-02-22T10:45:35.801Z,1019.48
2023-02-22T10:46:35.748Z,1019.54
2023-02-22T10:47:35.741Z,1019.52
2023-02-22T10:48:35.777Z,1019.53
2023-02-22T10:49:35.754Z,1019.52
2023-02-22T10:50:35.743Z,1019.52
2023-02-22T10:51:35.753Z,1019.51
2023-02-22T10:52:35.770Z,1019.49
2023-02-22T10:53:36.594Z,1019.47
2023-02-22T10:54:35.750Z,1019.48
2023-02-22T10:55:35.828Z,1019.47
2023-02-22T10:56:35.746Z,1019.45
2023-02-22T10:57:35.742Z,1019.45
2023-02-22T10:58:35.771Z,1019.43
2023-02-22T10:59:35.746Z,1019.43
2023-02-22T11:00:35.752Z,1019.42
2023-02-22T11:01:35.867Z,1019.36
2023-02-22T11:02:35.758Z,1019.36
2023-02-22T11:03:35.760Z,1019.35
2023-02-22T11:04:35.789Z,1019.33
2023-02-22T11:05:35.750Z,1019.32
2023-02-22T11:06:35.750Z,1019.33
2023-02-22T11:07:35.750Z,1019.34
2023-02-22T11:08:35.773Z,1019.38
2023-02-22T11:09:35.744Z,1019.34
2023-02-22T11:10:35.746Z,1019.34
2023-02-22T11:11:35.750Z,1019.32
2023-02-22T11:12:35.754Z,1019.36
2023-02-22T11:13:35.756Z,1019.34
2023-02-22T11:14:35.749Z,1019.33
2023-02-22T11:15:35.760Z,1019.36
2023-02-22T11:16:35.824Z,1019.31
2023-02-22T11:17:35.755Z,1019.34
2023-02-22T11:18:35.775Z,1019.32
2023-02-22T11:19:35.741Z,1019.31
2023-02-22T11:20:35.744Z,1019.32
2023-02-22T11:21:35.746Z,1019.31
2023-02-22T11:22:35.750Z,1019.29
2023-02-22T11:23:35.766Z,1019.3
2023-02-22T11:24:48.471Z,1019.32
2023-02-22T11:25:35.749Z,1019.3
2023-02-22T11:26:35.741Z,1019.31
2023-02-22T11:27:35.761Z,1019.33
2023-02-22T11:28:35.780Z,1019.31
2023-02-22T11:29:35.749Z,1019.26
2023-02-22T11:30:35.857Z,1019.25
2023-02-22T11:31:35.902Z,1019.23
2023-02-22T11:32:35.747Z,1019.22
2023-02-22T11:33:35.757Z,1019.23
2023-02-22T11:34:35.745Z,1019.23
2023-02-22T11:35:35.778Z,1019.22
2023-02-22T11:36:35.744Z,1019.21
2023-02-22T11:37:35.747Z,1019.23
2023-02-22T11:38:35.755Z,1019.21
2023-02-22T11:39:35.806Z,1019.2
2023-02-22T11:40:35.733Z,1019.2
2023-02-22T11:41:35.738Z,1019.19
2023-02-22T11:42:35.748Z,1019.16
2023-02-22T11:43:35.764Z,1019.11
2023-02-22T11:44:35.752Z,1019.12
2023-02-22T11:45:36.551Z,1019.11
2023-02-22T11:46:35.833Z,1019.12
2023-02-22T11:47:35.749Z,1019.09
2023-02-22T11:48:35.763Z,1019.09
2023-02-22T11:49:35.748Z,1019.13
2023-02-22T11:50:35.758Z,1019.06
2023-02-22T11:51:35.755Z,1019.11
2023-02-22T11:52:35.744Z,1019.08
2023-02-22T11:53:35.747Z,1019.05
2023-02-22T11:54:35.754Z,1019.02
2023-02-22T11:55:42.689Z,1018.99
2023-02-22T11:56:38.103Z,1019.02
2023-02-22T11:57:35.747Z,1018.99
2023-02-22T11:58:35.752Z,1019
2023-02-22T11:59:35.740Z,1018.97
2023-02-22T12:00:35.748Z,1019
2023-02-22T12:01:35.747Z,1019.01
2023-02-22T12:02:36.109Z,1019
2023-02-22T12:03:35.768Z,1018.99
2023-02-22T12:04:35.897Z,1018.98
2023-02-22T12:05:35.742Z,1019.03
2023-02-22T12:06:35.736Z,1019.01
2023-02-22T12:07:35.756Z,1019.03
2023-02-22T12:08:35.774Z,1018.99
2023-02-22T12:09:35.737Z,1018.98
2023-02-22T12:10:35.734Z,1018.98
2023-02-22T12:11:35.743Z,1019
2023-02-22T12:12:35.742Z,1018.98
2023-02-22T12:13:35.780Z,1018.98
2023-02-22T12:14:35.739Z,1018.98
2023-02-22T12:15:35.776Z,1018.96
2023-02-22T12:16:35.739Z,1018.95
2023-02-22T12:17:35.745Z,1018.97